| time (UTC) | temp C | wind direction | speed KPH | gust KPH | rain 1hr cm | rain 24hr cm | rain mn cm | humidity % | barometer mb |
| 20260508001559 | 7 | 164 | 4.8 | 12.9 | 0.33 | 1.78 | 1.78 | 95 | 1002.8 |
| 20260508000058 | 7 | 228 | 4.8 | 12.9 | 0.23 | 1.68 | 1.68 | 95 | 1002.9 |
| 20260507234558 | 7 | 200 | 12.9 | 24.1 | 0.15 | 1.60 | 1.60 | 95 | 1002.6 |
| 20260507233058 | 8 | 267 | 9.7 | 20.9 | 0.05 | 1.50 | 1.50 | 92 | 1002.3 |
| 20260507231549 | 8 | 218 | 11.3 | 22.5 | 0.00 | 1.42 | 1.42 | 91 | 1001.9 |
| 20260507230104 | 13 | 264 | 6.4 | 14.5 | 0.00 | 1.42 | 1.42 | 84 | 1001.3 |
| 20260507224551 | 13 | 231 | 8.0 | 24.1 | 0.00 | 1.42 | 1.42 | 83 | 1001.0 |
| 20260507223045 | 13 | 138 | 14.5 | 25.7 | 0.00 | 1.42 | 1.42 | 85 | 1000.9 |
| 20260507221546 | 13 | 111 | 11.3 | 24.1 | 0.00 | 1.42 | 1.42 | 84 | 1001.0 |
| 20260507220052 | 13 | 120 | 19.3 | 30.6 | 0.00 | 1.42 | 1.42 | 85 | 1000.7 |
| 20260507214544 | 12 | 123 | 20.9 | 38.6 | 0.00 | 1.42 | 1.42 | 85 | 1000.7 |
| 20260507213044 | 13 | 145 | 22.5 | 38.6 | 0.00 | 1.42 | 1.42 | 84 | 1000.6 |
| 20260507211544 | 13 | 141 | 22.5 | 40.2 | 0.00 | 1.42 | 1.42 | 85 | 1000.7 |
| 20260507210053 | 13 | 122 | 25.7 | 37.0 | 0.00 | 1.42 | 1.42 | 83 | 1000.7 |
| 20260507204541 | 13 | 110 | 20.9 | 37.0 | 0.05 | 1.42 | 1.42 | 85 | 1000.6 |
| 20260507203108 | 12 | 144 | 20.9 | 46.7 | 0.18 | 1.42 | 1.42 | 87 | 1000.7 |
| 20260507201540 | 12 | 117 | 29.0 | 57.9 | 0.33 | 1.42 | 1.42 | 87 | 1000.2 |
| 20260507200041 | 12 | 118 | 35.4 | 57.9 | 0.38 | 1.42 | 1.42 | 86 | 999.7 |
| 20260507194536 | 12 | 139 | 29.0 | 48.3 | 0.41 | 1.40 | 1.40 | 88 | 1000.9 |
| 20260507193035 | 12 | 161 | 20.9 | 30.6 | 0.36 | 1.24 | 1.24 | 88 | 1001.7 |
| 20260507191536 | 12 | 150 | 16.1 | 30.6 | 0.36 | 1.12 | 1.12 | 88 | 1002.8 |
| 20260507190030 | 12 | 152 | 16.1 | 43.5 | 0.46 | 1.07 | 1.07 | 88 | 1002.6 |
| 20260507184526 | 12 | 124 | 22.5 | 40.2 | 0.64 | 0.99 | 0.99 | 89 | 1003.1 |
| 20260507183024 | 12 | 140 | 20.9 | 37.0 | 0.81 | 0.89 | 0.89 | 90 | 1003.2 |
| 20260507181521 | 12 | 198 | 24.1 | 56.3 | 0.71 | 0.76 | 0.76 | 89 | 1003.5 |
| 20260507180022 | 12 | 204 | 27.4 | 48.3 | 0.61 | 0.61 | 0.61 | 90 | 1003.7 |
| 20260507174522 | 12 | 250 | 19.3 | 45.1 | 0.33 | 0.33 | 0.33 | 90 | 1004.1 |
| 20260507173018 | 13 | 209 | 32.2 | 54.7 | 0.08 | 0.08 | 0.08 | 87 | 1003.3 |
| 20260507171506 | 13 | 225 | 24.1 | 45.1 | 0.03 | 0.03 | 0.03 | 86 | 1002.4 |
| 20260507170006 | 15 | 218 | 33.8 | 57.9 | 0.00 | 0.00 | 0.00 | 82 | 1002.7 |
| 20260507164504 | 15 | 187 | 27.4 | 70.8 | 0.00 | 0.00 | 0.00 | 82 | 1002.6 |
| 20260507163002 | 15 | 226 | 37.0 | 74.0 | 0.00 | 0.00 | 0.00 | 77 | 1002.6 |
| 20260507161501 | 15 | 208 | 40.2 | 80.5 | 0.00 | 0.00 | 0.00 | 78 | 1003.2 |
| 20260507160104 | 15 | 219 | 33.8 | 72.4 | 0.00 | 0.00 | 0.00 | 77 | 1003.6 |
| 20260507154558 | 15 | 214 | 37.0 | 80.5 | 0.00 | 0.00 | 0.00 | 77 | 1003.9 |
| 20260507153059 | 15 | 206 | 40.2 | 69.2 | 0.00 | 0.00 | 0.00 | 75 | 1004.2 |
| 20260507151558 | 16 | 220 | 40.2 | 74.0 | 0.00 | 0.00 | 0.00 | 73 | 1004.6 |
| 20260507150054 | 15 | 217 | 37.0 | 83.7 | 0.00 | 0.00 | 0.00 | 76 | 1004.8 |
| 20260507144607 | 16 | 187 | 40.2 | 72.4 | 0.00 | 0.00 | 0.00 | 75 | 1004.9 |
| 20260507143100 | 16 | 189 | 49.9 | 72.4 | 0.00 | 0.00 | 0.00 | 76 | 1005.0 |
| 20260507141558 | 15 | 186 | 43.5 | 61.2 | 0.00 | 0.00 | 0.00 | 78 | 1005.7 |
| 20260507140050 | 15 | 198 | 30.6 | 70.8 | 0.00 | 0.00 | 0.00 | 80 | 1005.7 |
| 20260507134552 | 15 | 193 | 38.6 | 72.4 | 0.00 | 0.00 | 0.00 | 79 | 1005.8 |
| 20260507133125 | 15 | 221 | 29.0 | 64.4 | 0.00 | 0.00 | 0.00 | 79 | 1005.5 |
| 20260507131548 | 15 | 247 | 43.5 | 88.5 | 0.00 | 0.00 | 0.00 | 80 | 1005.8 |
| 20260507130058 | 15 | 194 | 49.9 | 77.2 | 0.00 | 0.00 | 0.00 | 81 | 1006.3 |
| 20260507124548 | 15 | 220 | 37.0 | 64.4 | 0.00 | 0.00 | 0.00 | 80 | 1006.0 |
| 20260507123047 | 15 | 214 | 40.2 | 72.4 | 0.00 | 0.00 | 0.00 | 79 | 1006.5 |
| 20260507121542 | 15 | 231 | 32.2 | 70.8 | 0.00 | 0.00 | 0.00 | 80 | 1006.2 |
| 20260507120039 | 15 | 198 | 40.2 | 78.9 | 0.00 | 0.00 | 0.00 | 82 | 1006.6 |
| 20260507114547 | 15 | 133 | 37.0 | 66.0 | 0.00 | 0.00 | 0.00 | 82 | 1007.0 |
| 20260507113038 | 14 | 197 | 40.2 | 62.8 | 0.00 | 0.00 | 0.00 | 83 | 1007.1 |
| 20260507111536 | 15 | 171 | 38.6 | 74.0 | 0.00 | 0.00 | 0.00 | 81 | 1007.9 |
| 20260507110041 | 15 | 138 | 43.5 | 72.4 | 0.00 | 0.00 | 0.00 | 80 | 1007.5 |
| 20260507104534 | 15 | 135 | 25.7 | 54.7 | 0.00 | 0.00 | 0.00 | 80 | 1007.7 |
| 20260507103042 | 15 | 150 | 35.4 | 62.8 | 0.00 | 0.00 | 0.00 | 81 | 1007.6 |
| 20260507101537 | 15 | 178 | 48.3 | 69.2 | 0.00 | 0.00 | 0.00 | 79 | 1007.7 |
| 20260507100036 | 15 | 136 | 48.3 | 80.5 | 0.00 | 0.00 | 0.00 | 80 | 1008.3 |
| 20260507094535 | 15 | 157 | 51.5 | 77.2 | 0.00 | 0.00 | 0.00 | 80 | 1007.7 |
| 20260507093029 | 14 | 196 | 27.4 | 67.6 | 0.00 | 0.00 | 0.00 | 81 | 1008.9 |
| 20260507091532 | 14 | 138 | 45.1 | 66.0 | 0.00 | 0.00 | 0.00 | 83 | 1008.9 |
| 20260507090025 | 14 | 148 | 38.6 | 70.8 | 0.00 | 0.00 | 0.00 | 83 | 1009.1 |
| 20260507084524 | 14 | 122 | 43.5 | 57.9 | 0.00 | 0.00 | 0.00 | 82 | 1008.9 |
| 20260507083023 | 15 | 209 | 29.0 | 56.3 | 0.00 | 0.00 | 0.00 | 81 | 1010.0 |
| 20260507081523 | 15 | 184 | 19.3 | 61.2 | 0.00 | 0.00 | 0.00 | 82 | 1009.0 |
| 20260507080019 | 15 | 145 | 40.2 | 69.2 | 0.00 | 0.00 | 0.00 | 81 | 1009.3 |
| 20260507074516 | 15 | 133 | 30.6 | 48.3 | 0.00 | 0.00 | 0.00 | 81 | 1010.1 |
| 20260507073015 | 15 | 143 | 33.8 | 51.5 | 0.00 | 0.00 | 0.00 | 81 | 1010.3 |
| 20260507071514 | 15 | 202 | 20.9 | 45.1 | 0.00 | 0.00 | 0.00 | 80 | 1011.1 |
| 20260507070018 | 15 | 154 | 27.4 | 49.9 | 0.00 | 0.00 | 0.00 | 78 | 1011.0 |
| 20260507064513 | 15 | 141 | 29.0 | 48.3 | 0.00 | 0.00 | 0.00 | 78 | 1011.2 |
| 20260507063007 | 15 | 183 | 25.7 | 59.5 | 0.00 | 0.00 | 0.00 | 77 | 1010.9 |
| 20260507061505 | 15 | 198 | 37.0 | 59.5 | 0.00 | 0.00 | 0.00 | 76 | 1011.3 |
| 20260507060002 | 15 | 164 | 27.4 | 51.5 | 0.00 | 0.00 | 0.00 | 75 | 1011.8 |
| 20260507054600 | 15 | 159 | 30.6 | 45.1 | 0.00 | 0.00 | 0.00 | 74 | 1011.5 |
| 20260507053124 | 15 | 132 | 24.1 | 41.8 | 0.00 | 0.00 | 0.00 | 68 | 1012.3 |
| 20260507051556 | 15 | 200 | 19.3 | 48.3 | 0.00 | 0.00 | 0.00 | 65 | 1012.7 |
| 20260507050054 | 14 | 145 | 29.0 | 46.7 | 0.00 | 0.00 | 0.00 | 68 | 1013.0 |
| 20260507044600 | 14 | 155 | 16.1 | 32.2 | 0.00 | 0.00 | 0.00 | 72 | 1013.4 |
| 20260507043050 | 14 | 176 | 19.3 | 33.8 | 0.00 | 0.00 | 0.00 | 73 | 1013.9 |
| 20260507041549 | 15 | 60 | 29.0 | 53.1 | 0.00 | 0.00 | 0.00 | 71 | 1014.2 |
| 20260507040143 | 15 | 158 | 27.4 | 49.9 | 0.00 | 0.00 | 0.00 | 69 | 1014.4 |
| 20260507034544 | 15 | 172 | 24.1 | 46.7 | 0.00 | 0.00 | 0.00 | 71 | 1014.5 |
| 20260507033049 | 15 | 129 | 29.0 | 56.3 | 0.00 | 0.00 | 0.00 | 72 | 1015.0 |
| 20260507031551 | 15 | 215 | 22.5 | 49.9 | 0.00 | 0.00 | 0.00 | 72 | 1015.3 |
| 20260507030033 | 15 | 174 | 29.0 | 48.3 | 0.00 | 0.00 | 0.00 | 71 | 1015.4 |
| 20260507024531 | 15 | 212 | 30.6 | 51.5 | 0.00 | 0.00 | 0.00 | 70 | 1015.6 |
| 20260507023030 | 15 | 220 | 32.2 | 53.1 | 0.00 | 0.00 | 0.00 | 69 | 1015.7 |
| 20260507021530 | 15 | 176 | 27.4 | 49.9 | 0.00 | 0.00 | 0.00 | 69 | 1015.8 |
| 20260507020028 | 16 | 207 | 32.2 | 61.2 | 0.00 | 0.00 | 0.00 | 68 | 1015.8 |
| 20260507014540 | 16 | 240 | 32.2 | 53.1 | 0.00 | 0.00 | 0.00 | 69 | 1015.9 |
| 20260507013035 | 16 | 190 | 27.4 | 67.6 | 0.00 | 0.00 | 0.00 | 69 | 1015.9 |
| 20260507011532 | 16 | 216 | 30.6 | 59.5 | 0.00 | 0.00 | 0.00 | 69 | 1016.0 |
| 20260507010034 | 16 | 202 | 30.6 | 54.7 | 0.00 | 0.00 | 0.00 | 69 | 1016.3 |
| 20260507004525 | 16 | 189 | 32.2 | 56.3 | 0.00 | 0.00 | 0.00 | 69 | 1016.4 |
| 20260507003024 | 16 | 214 | 30.6 | 53.1 | 0.00 | 0.00 | 0.00 | 69 | 1016.3 |